createdAt,value
2022-08-25T00:03:58.460Z,101260.47
2022-08-25T00:06:46.867Z,101257.16
2022-08-25T00:09:35.752Z,101251.06
2022-08-25T00:12:23.076Z,101254.03
2022-08-25T00:15:11.232Z,101256.31
2022-08-25T00:17:58.938Z,101259.03
2022-08-25T00:20:48.774Z,101261.66
2022-08-25T00:23:36.329Z,101249.97
2022-08-25T00:26:23.830Z,101259.50
2022-08-25T00:29:11.704Z,101259.13
2022-08-25T00:31:59.531Z,101244.47
2022-08-25T00:34:47.078Z,101252.75
2022-08-25T00:37:34.128Z,101252.75
2022-08-25T00:40:22.367Z,101251.84
2022-08-25T00:43:09.844Z,101250.06
2022-08-25T00:45:56.958Z,101251.88
2022-08-25T00:48:47.608Z,101250.91
2022-08-25T00:51:43.126Z,101246.84
2022-08-25T00:54:40.937Z,101256.31
2022-08-25T00:57:35.233Z,101254.66
2022-08-25T01:00:24.847Z,101252.97
2022-08-25T01:03:12.383Z,101259.38
2022-08-25T01:06:02.036Z,101264.94
2022-08-25T01:08:32.391Z,101260.63
2022-08-25T01:11:03.561Z,101270.22
2022-08-25T01:13:45.302Z,101264.19
2022-08-25T01:16:15.138Z,101275.34
2022-08-25T01:18:52.296Z,101274.44
2022-08-25T01:21:22.189Z,101270.50
2022-08-25T01:23:53.109Z,101277.94
2022-08-25T01:26:30.353Z,101274.72
2022-08-25T01:29:18.292Z,101273.53
2022-08-25T01:31:45.322Z,101280.75
2022-08-25T01:34:13.434Z,101271.13
2022-08-25T01:36:42.549Z,101273.81
2022-08-25T01:39:09.732Z,101274.88
2022-08-25T01:41:46.335Z,101268.31
2022-08-25T01:44:16.657Z,101277.84
2022-08-25T01:46:43.996Z,101268.31
2022-08-25T01:49:11.025Z,101278.31
2022-08-25T01:51:48.883Z,101278.22
2022-08-25T01:54:15.711Z,101271.44
2022-08-25T01:56:42.571Z,101284.59
2022-08-25T02:03:01.921Z,101276.63
2022-08-25T02:05:30.197Z,101276.88
2022-08-25T02:07:59.597Z,101277.94
2022-08-25T02:10:27.573Z,101279.81
2022-08-25T02:12:54.682Z,101281.34
2022-08-25T02:15:21.579Z,101282.88
2022-08-25T02:17:48.355Z,101280.78
2022-08-25T02:24:16.563Z,101283.66
2022-08-25T02:27:04.216Z,101291.19
2022-08-25T02:29:51.314Z,101284.66
2022-08-25T02:32:39.525Z,101288.00
2022-08-25T02:35:26.706Z,101282.44
2022-08-25T02:38:14.338Z,101284.72
2022-08-25T02:41:07.974Z,101293.44
2022-08-25T02:43:55.401Z,101286.72
2022-08-25T02:46:42.539Z,101293.56
2022-08-25T02:49:30.610Z,101291.22
2022-08-25T02:52:17.776Z,101297.88
2022-08-25T02:55:08.984Z,101300.97
2022-08-25T02:57:56.019Z,101300.97
2022-08-25T06:08:33.799Z,101308.09
2022-08-25T06:11:07.447Z,101308.91
2022-08-25T06:13:34.478Z,101304.63
2022-08-25T06:16:01.321Z,101305.44
2022-08-25T06:18:28.159Z,101304.34
2022-08-25T06:20:54.928Z,101307.19
2022-08-25T06:23:21.716Z,101312.53
2022-08-25T06:25:50.714Z,101318.22
2022-08-25T06:28:18.360Z,101320.66
2022-08-25T06:30:45.799Z,101312.78
2022-08-25T06:33:13.065Z,101312.06
2022-08-25T06:35:44.458Z,101320.88
2022-08-25T06:39:12.842Z,101317.72
2022-08-25T06:41:39.682Z,101330.59
2022-08-25T06:44:06.813Z,101323.53
2022-08-25T06:46:36.196Z,101324.31
2022-08-25T06:49:08.251Z,101326.41
2022-08-25T06:51:52.261Z,101323.38
2022-08-25T06:55:01.639Z,101325.47
2022-08-25T06:58:25.819Z,101322.69
2022-08-25T07:08:33.576Z,101334.00
2022-08-25T07:11:15.918Z,101327.75
2022-08-25T07:13:44.786Z,101324.72
2022-08-25T07:17:10.563Z,101328.88
2022-08-25T07:19:41.039Z,101339.44
2022-08-25T07:26:33.567Z,101345.97
2022-08-25T07:33:06.755Z,101355.53
2022-08-25T07:35:37.954Z,101369.59
2022-08-25T07:38:07.093Z,101359.59
2022-08-25T07:40:38.034Z,101364.44
2022-08-25T07:43:10.643Z,101366.16
2022-08-25T07:45:49.084Z,101363.91
2022-08-25T07:48:16.399Z,101364.47
2022-08-25T07:50:45.850Z,101368.25
2022-08-25T07:53:15.109Z,101377.16
2022-08-25T07:55:42.017Z,101383.16
2022-08-25T08:02:39.191Z,101393.72
2022-08-25T08:08:59.021Z,101391.53
2022-08-25T08:11:27.391Z,101390.81
2022-08-25T08:13:56.612Z,101392.59
2022-08-25T08:16:26.238Z,101392.44
2022-08-25T08:23:04.243Z,101395.22
2022-08-25T08:25:31.243Z,101400.09
2022-08-25T08:27:58.069Z,101387.84
2022-08-25T08:30:26.316Z,101397.63
2022-08-25T08:33:11.933Z,101398.50
2022-08-25T08:36:06.115Z,101406.25
2022-08-25T08:38:43.263Z,101404.03
2022-08-25T08:42:09.460Z,101409.06
2022-08-25T08:44:37.152Z,101403.91
2022-08-25T08:47:52.911Z,101408.31
2022-08-25T08:50:51.998Z,101402.50
2022-08-25T08:53:55.020Z,101408.84
2022-08-25T08:56:32.087Z,101410.38
2022-08-25T08:59:06.334Z,101402.72
2022-08-25T09:01:47.123Z,101403.09
2022-08-25T09:04:45.443Z,101392.16
2022-08-25T09:07:17.860Z,101397.31
2022-08-25T09:09:48.013Z,101401.38
2022-08-25T09:12:21.892Z,101398.09
2022-08-25T09:15:14.663Z,101400.94
2022-08-25T09:25:39.652Z,101394.59
2022-08-25T09:28:38.756Z,101394.47
2022-08-25T09:34:56.363Z,101395.31
2022-08-25T09:37:25.051Z,101392.72
2022-08-25T09:39:51.911Z,101402.38
2022-08-25T09:42:23.754Z,101389.28
2022-08-25T09:44:50.803Z,101383.41
2022-08-25T09:47:28.093Z,101385.28
2022-08-25T09:53:35.208Z,101381.50
2022-08-25T09:56:27.373Z,101372.28
2022-08-25T09:59:36.105Z,101380.06
2022-08-25T10:02:25.831Z,101380.22
2022-08-25T10:04:53.501Z,101383.72
2022-08-25T10:07:54.824Z,101371.66
2022-08-25T10:10:53.302Z,101378.25
2022-08-25T10:13:47.519Z,101370.47
2022-08-25T10:16:34.830Z,101369.72
2022-08-25T10:19:27.033Z,101359.66
2022-08-25T10:26:37.403Z,101351.38
2022-08-25T10:29:42.834Z,101359.38
2022-08-25T10:32:54.312Z,101352.28
2022-08-25T10:36:15.102Z,101349.69
2022-08-25T10:39:31.731Z,101346.47
2022-08-25T10:50:29.566Z,101346.63
2022-08-25T10:53:14.288Z,101330.03
2022-08-25T11:03:35.256Z,101323.22
2022-08-25T11:06:18.029Z,101310.50
2022-08-25T11:08:53.323Z,101318.94
2022-08-25T11:11:47.212Z,101307.53
2022-08-25T11:14:46.656Z,101317.69
2022-08-25T11:17:55.981Z,101314.50
2022-08-25T11:21:10.097Z,101319.88
2022-08-25T11:24:09.300Z,101324.00
2022-08-25T11:26:57.748Z,101320.00
2022-08-25T11:37:11.112Z,101308.50
2022-08-25T11:39:55.940Z,101307.31
2022-08-25T11:42:28.665Z,101301.28
2022-08-25T11:45:42.452Z,101294.81
2022-08-25T11:48:21.756Z,101291.16
2022-08-25T11:51:04.998Z,101299.16
2022-08-25T11:53:35.811Z,101291.88
2022-08-25T11:56:09.514Z,101294.59
2022-08-25T12:02:09.068Z,101301.06
2022-08-25T12:04:45.116Z,101300.34
2022-08-25T12:11:10.972Z,101296.44
2022-08-25T12:13:49.686Z,101296.81
2022-08-25T12:16:36.235Z,101290.78
2022-08-25T12:22:55.528Z,101299.63
2022-08-25T12:29:46.239Z,101291.22
2022-08-25T12:32:34.794Z,101303.31
2022-08-25T12:36:00.317Z,101296.06
2022-08-25T12:38:53.018Z,101302.09
2022-08-25T12:50:50.371Z,101292.41
2022-08-25T12:53:27.995Z,101290.81
2022-08-25T12:56:21.020Z,101294.06
2022-08-25T12:59:02.500Z,101297.28
2022-08-25T13:02:17.662Z,101290.03
2022-08-25T13:05:17.045Z,101296.06
2022-08-25T13:08:26.868Z,101291.63
2022-08-25T13:15:44.376Z,101285.56
2022-08-25T13:18:34.030Z,101288.94
2022-08-25T13:21:40.956Z,101281.97
2022-08-25T13:24:50.619Z,101285.91
2022-08-25T13:32:01.454Z,101283.94
2022-08-25T13:37:38.661Z,101282.31
2022-08-25T13:44:19.524Z,101266.63
2022-08-25T13:46:47.557Z,101275.34
2022-08-25T13:53:17.031Z,101268.16
2022-08-25T13:56:07.747Z,101271.19
2022-08-25T13:59:03.586Z,101270.34
2022-08-25T14:01:54.270Z,101271.50
2022-08-25T14:04:50.591Z,101272.28
2022-08-25T14:07:19.626Z,101267.91
2022-08-25T14:10:09.030Z,101265.53
2022-08-25T14:12:47.803Z,101258.31
2022-08-25T14:15:21.778Z,101260.41
2022-08-25T14:18:00.775Z,101254.53
2022-08-25T14:20:31.202Z,101252.59
2022-08-25T14:23:01.795Z,101253.47
2022-08-25T14:25:49.388Z,101255.94
2022-08-25T14:32:37.323Z,101253.47
2022-08-25T14:35:25.124Z,101248.31
2022-08-25T14:39:02.789Z,101243.50
2022-08-25T14:45:31.486Z,101242.13
2022-08-25T14:48:28.493Z,101241.69
2022-08-25T14:51:16.110Z,101242.78
2022-08-25T14:54:19.155Z,101238.88
2022-08-25T14:57:08.281Z,101229.13
2022-08-25T14:59:35.754Z,101234.25
2022-08-25T15:02:15.325Z,101228.50
2022-08-25T15:05:08.936Z,101233.53
2022-08-25T15:08:33.384Z,101235.38
2022-08-25T15:11:10.985Z,101231.13
2022-08-25T15:18:26.046Z,101234.34
2022-08-25T15:20:53.454Z,101232.03
2022-08-25T15:24:17.660Z,101230.16
2022-08-25T15:29:55.755Z,101234.41
2022-08-25T15:32:25.017Z,101225.94
2022-08-25T15:35:23.425Z,101229.53
2022-08-25T15:38:16.196Z,101230.75
2022-08-25T15:53:42.083Z,101208.09
2022-08-25T15:56:29.198Z,101206.47
2022-08-25T16:02:46.482Z,101194.31
2022-08-25T16:13:12.080Z,101188.88
2022-08-25T16:15:54.073Z,101189.72
2022-08-25T16:18:22.729Z,101186.47
2022-08-25T16:20:50.366Z,101180.88
2022-08-25T16:27:17.797Z,101191.47
2022-08-25T16:29:44.743Z,101197.50
2022-08-25T16:32:13.897Z,101183.47
2022-08-25T16:38:31.160Z,101194.06
2022-08-25T16:48:40.511Z,101187.22
2022-08-25T16:51:13.919Z,101183.56
2022-08-25T16:54:00.691Z,101182.78
2022-08-25T16:56:29.728Z,101176.31
2022-08-25T16:59:12.920Z,101175.94
2022-08-25T17:02:00.062Z,101167.16
2022-08-25T17:04:32.248Z,101179.66
2022-08-25T17:06:59.916Z,101180.09
2022-08-25T17:09:29.656Z,101179.25
2022-08-25T17:11:57.327Z,101176.84
2022-08-25T17:14:24.935Z,101172.84
2022-08-25T17:16:54.780Z,101174.84
2022-08-25T17:19:23.675Z,101178.47
2022-08-25T17:21:50.933Z,101167.63
2022-08-25T17:24:18.004Z,101177.28
2022-08-25T17:26:47.329Z,101175.69
2022-08-25T17:29:19.025Z,101173.66
2022-08-25T17:31:51.269Z,101178.09
2022-08-25T17:34:22.464Z,101177.28
2022-08-25T17:36:50.361Z,101176.13
2022-08-25T17:39:18.501Z,101168.91
2022-08-25T17:41:45.830Z,101164.09
2022-08-25T17:44:13.588Z,101166.13
2022-08-25T17:46:47.217Z,101160.50
2022-08-25T17:49:20.921Z,101160.03
2022-08-25T17:51:47.712Z,101156.75
2022-08-25T17:54:14.913Z,101153.50
2022-08-25T17:56:41.971Z,101151.44
2022-08-25T17:59:09.356Z,101157.88
2022-08-25T18:01:40.522Z,101154.72
2022-08-25T18:04:08.270Z,101158.00
2022-08-25T18:06:44.676Z,101162.06
2022-08-25T18:13:02.411Z,101164.56
2022-08-25T18:15:30.561Z,101170.56
2022-08-25T18:17:57.636Z,101166.97
2022-08-25T18:20:24.810Z,101163.78
2022-08-25T18:22:51.724Z,101167.00
2022-08-25T18:25:18.504Z,101162.19
2022-08-25T18:27:45.250Z,101162.59
2022-08-25T18:30:12.368Z,101160.19
2022-08-25T18:32:40.526Z,101161.38
2022-08-25T18:35:27.790Z,101163.00
2022-08-25T18:42:06.530Z,101167.44
2022-08-25T18:44:54.383Z,101157.78
2022-08-25T18:47:41.610Z,101159.00
2022-08-25T18:50:32.737Z,101153.38
2022-08-25T18:53:30.713Z,101154.97
2022-08-25T18:56:53.963Z,101144.50
2022-08-25T18:59:24.189Z,101152.94
2022-08-25T19:01:53.085Z,101156.56
2022-08-25T19:04:20.492Z,101149.72
2022-08-25T19:07:14.750Z,101156.16
2022-08-25T19:09:41.535Z,101156.91
2022-08-25T19:12:11.722Z,101160.53
2022-08-25T19:14:49.357Z,101158.53
2022-08-25T19:17:37.322Z,101157.72
2022-08-25T19:24:15.886Z,101160.53
2022-08-25T19:26:43.155Z,101158.94
2022-08-25T19:30:30.450Z,101155.69
2022-08-25T19:37:25.251Z,101172.56
2022-08-25T19:39:55.552Z,101170.94
2022-08-25T19:54:29.966Z,101177.31
2022-08-25T19:57:28.632Z,101176.50
2022-08-25T20:03:58.506Z,101172.47
2022-08-25T20:14:16.814Z,101182.84
2022-08-25T20:25:48.251Z,101185.16
2022-08-25T20:28:37.350Z,101190.78
2022-08-25T20:35:55.122Z,101191.53
2022-08-25T20:39:20.544Z,101183.09
2022-08-25T20:41:51.101Z,101183.88
2022-08-25T20:47:58.464Z,101180.16
2022-08-25T20:55:54.950Z,101185.75
2022-08-25T20:58:54.671Z,101196.19
2022-08-25T21:01:43.736Z,101196.56
2022-08-25T21:04:14.529Z,101198.50
2022-08-25T21:10:23.462Z,101211.75
2022-08-25T21:12:53.540Z,101210.53
2022-08-25T21:15:20.562Z,101208.13
2022-08-25T21:21:49.799Z,101207.28
2022-08-25T21:24:18.364Z,101214.13
2022-08-25T21:26:49.759Z,101198.47
2022-08-25T21:29:36.952Z,101198.44
2022-08-25T21:32:24.598Z,101196.03
2022-08-25T21:35:11.839Z,101193.19
2022-08-25T21:38:29.467Z,101198.34
2022-08-25T21:40:58.818Z,101193.91
2022-08-25T21:43:26.194Z,101191.13
2022-08-25T21:50:05.101Z,101188.28
2022-08-25T21:52:43.515Z,101191.06
2022-08-25T21:55:46.243Z,101189.84
2022-08-25T21:58:13.816Z,101185.81
2022-08-25T22:00:41.154Z,101180.25
2022-08-25T22:03:08.223Z,101175.06
2022-08-25T22:05:37.360Z,101179.06
2022-08-25T22:08:04.293Z,101186.28
2022-08-25T22:10:31.056Z,101183.84
2022-08-25T22:12:57.804Z,101180.56
2022-08-25T22:15:24.784Z,101181.31
2022-08-25T22:17:51.726Z,101179.72
2022-08-25T22:20:25.298Z,101182.13
2022-08-25T22:23:20.161Z,101176.06
2022-08-25T22:25:50.392Z,101186.06
2022-08-25T22:32:06.672Z,101190.75
2022-08-25T22:34:34.716Z,101191.53
2022-08-25T22:37:07.061Z,101193.91
2022-08-25T22:39:46.926Z,101181.13
2022-08-25T22:42:14.219Z,101187.97
2022-08-25T22:45:01.941Z,101185.56
2022-08-25T22:47:29.782Z,101191.56
2022-08-25T22:53:48.718Z,101182.34
2022-08-25T22:56:29.825Z,101182.75
2022-08-25T22:58:59.398Z,101174.75
2022-08-25T23:01:26.897Z,101174.81
2022-08-25T23:07:44.384Z,101170.78
2022-08-25T23:15:12.203Z,101171.97
2022-08-25T23:17:39.082Z,101171.97
2022-08-25T23:27:47.598Z,101169.88
2022-08-25T23:30:17.114Z,101168.66
2022-08-25T23:32:43.916Z,101162.63
2022-08-25T23:35:12.266Z,101163.44
2022-08-25T23:37:41.875Z,101166.66
2022-08-25T23:40:11.221Z,101173.84
2022-08-25T23:42:58.761Z,101161.81
2022-08-25T23:45:46.397Z,101161.81
2022-08-25T23:48:34.793Z,101162.59
2022-08-25T23:51:28.234Z,101161.00
2022-08-25T23:54:15.852Z,101159.78
2022-08-25T23:57:03.642Z,101159.38
2022-08-25T23:59:53.894Z,101146.53
